Time,TemperatureF,DewpointF,PressureIn,WindDirection,WindDirectionDegrees,WindSpeedMPH,WindSpeedGustMPH,Humidity,HourlyPrecipIn,Conditions,Clouds,dailyrainin,SoftwareType,DateUTC
2013-06-06 00:13:00,65.4,62.0,29.82,NNE,28,0.0,0.0,89,0.00,,,0.00,weatherlink.com 1.10,2013-06-06 04:13:00,
2013-06-06 00:28:00,65.3,62.0,29.82,NNE,28,0.0,0.0,89,0.00,,,0.00,weatherlink.com 1.10,2013-06-06 04:28:00,
2013-06-06 00:43:00,65.0,62.0,29.81,NNE,28,0.0,1.0,90,0.00,,,0.00,weatherlink.com 1.10,2013-06-06 04:43:00,
2013-06-06 00:58:00,65.1,62.0,29.81,NNE,28,0.0,0.0,90,0.00,,,0.00,weatherlink.com 1.10,2013-06-06 04:58:00,
2013-06-06 01:13:00,65.0,62.0,29.80,NNE,28,0.0,2.0,90,0.00,,,0.00,weatherlink.com 1.10,2013-06-06 05:13:00,
2013-06-06 01:28:00,64.9,62.0,29.80,NNE,28,0.0,0.0,91,0.00,,,0.00,weatherlink.com 1.10,2013-06-06 05:28:00,
2013-06-06 01:43:00,64.8,62.0,29.79,NNE,28,0.0,0.0,91,0.00,,,0.00,weatherlink.com 1.10,2013-06-06 05:43:00,
2013-06-06 01:58:00,64.7,62.0,29.79,NNE,28,0.0,0.0,91,0.00,,,0.00,weatherlink.com 1.10,2013-06-06 05:58:00,
2013-06-06 02:13:00,64.6,62.0,29.79,NNE,28,0.0,0.0,91,0.00,,,0.00,weatherlink.com 1.10,2013-06-06 06:13:00,
2013-06-06 02:28:00,64.6,62.0,29.78,NNE,28,0.0,1.0,92,0.00,,,0.00,weatherlink.com 1.10,2013-06-06 06:28:00,
2013-06-06 02:43:00,64.6,62.0,29.78,NNE,28,0.0,0.0,92,0.00,,,0.00,weatherlink.com 1.10,2013-06-06 06:43:00,
2013-06-06 02:58:00,64.6,62.0,29.77,NNE,28,0.0,0.0,92,0.00,,,0.00,weatherlink.com 1.10,2013-06-06 06:58:00,
2013-06-06 03:13:00,64.6,62.0,29.77,NNE,28,0.0,0.0,92,0.00,,,0.00,weatherlink.com 1.10,2013-06-06 07:13:00,
2013-06-06 03:28:00,64.6,62.0,29.77,NNE,28,0.0,1.0,92,0.00,,,0.00,weatherlink.com 1.10,2013-06-06 07:28:00,
2013-06-06 03:43:00,64.5,62.0,29.76,NNE,28,0.0,1.0,92,0.00,,,0.00,weatherlink.com 1.10,2013-06-06 07:43:00,
2013-06-06 03:58:00,64.5,62.0,29.76,NNE,28,0.0,0.0,92,0.00,,,0.00,weatherlink.com 1.10,2013-06-06 07:58:00,
2013-06-06 04:13:00,64.6,62.0,29.76,NNE,28,0.0,0.0,92,0.00,,,0.00,weatherlink.com 1.10,2013-06-06 08:13:00,
2013-06-06 04:28:00,64.7,62.0,29.75,NNE,28,0.0,1.0,92,0.00,,,0.00,weatherlink.com 1.10,2013-06-06 08:28:00,
2013-06-06 04:43:00,64.5,62.0,29.75,NNE,28,0.0,0.0,92,0.00,,,0.00,weatherlink.com 1.10,2013-06-06 08:43:00,
2013-06-06 04:58:00,64.5,63.0,29.75,NNE,28,0.0,1.0,93,0.00,,,0.00,weatherlink.com 1.10,2013-06-06 08:58:00,
2013-06-06 05:13:00,64.4,62.0,29.74,NNE,28,0.0,1.0,93,0.00,,,0.00,weatherlink.com 1.10,2013-06-06 09:13:00,
2013-06-06 05:28:00,64.3,63.0,29.74,NNE,28,0.0,0.0,94,0.00,,,0.00,weatherlink.com 1.10,2013-06-06 09:28:00,
2013-06-06 05:43:00,64.4,63.0,29.74,NNE,28,0.0,0.0,94,0.00,,,0.00,weatherlink.com 1.10,2013-06-06 09:43:00,
2013-06-06 05:58:00,64.4,63.0,29.74,NNE,28,0.0,0.0,94,0.01,,,0.01,weatherlink.com 1.10,2013-06-06 09:58:00,
2013-06-06 06:13:00,64.8,64.0,29.74,NNE,28,1.0,1.0,96,0.01,,,0.01,weatherlink.com 1.10,2013-06-06 10:13:00,
2013-06-06 06:28:00,65.5,64.0,29.74,NNE,28,0.0,0.0,96,0.01,,,0.01,weatherlink.com 1.10,2013-06-06 10:28:00,
2013-06-06 06:43:00,66.4,66.0,29.75,SSE,167,0.0,4.0,97,0.09,,,0.10,weatherlink.com 1.10,2013-06-06 10:43:00,
2013-06-06 06:58:00,66.5,66.0,29.75,SSW,205,0.0,6.0,97,0.43,,,0.44,weatherlink.com 1.10,2013-06-06 10:58:00,
2013-06-06 07:13:00,66.6,66.0,29.75,SSW,205,1.0,2.0,97,0.56,,,0.57,weatherlink.com 1.10,2013-06-06 11:13:00,
2013-06-06 07:28:00,66.6,66.0,29.75,SSW,205,0.0,2.0,97,0.65,,,0.66,weatherlink.com 1.10,2013-06-06 11:28:00,
2013-06-06 07:43:00,66.5,66.0,29.75,SSW,205,0.0,0.0,97,0.56,,,0.68,weatherlink.com 1.10,2013-06-06 11:43:00,
2013-06-06 07:58:00,66.5,66.0,29.75,SSW,205,0.0,0.0,97,0.27,,,0.71,weatherlink.com 1.10,2013-06-06 11:58:00,
2013-06-06 08:13:00,66.7,66.0,29.75,SSW,205,0.0,1.0,97,0.16,,,0.73,weatherlink.com 1.10,2013-06-06 12:13:00,
2013-06-06 08:28:00,66.7,66.0,29.75,SSW,205,0.0,1.0,97,0.06,,,0.73,weatherlink.com 1.10,2013-06-06 12:28:00,
2013-06-06 08:43:00,66.8,66.0,29.75,SSW,199,2.0,3.0,97,0.06,,,0.74,weatherlink.com 1.10,2013-06-06 12:43:00,
2013-06-06 08:58:00,66.9,66.0,29.76,SW,223,1.0,3.0,97,0.03,,,0.74,weatherlink.com 1.10,2013-06-06 12:58:00,
2013-06-06 09:13:00,66.7,66.0,29.77,SSE,167,0.0,4.0,96,0.01,,,0.74,weatherlink.com 1.10,2013-06-06 13:13:00,
2013-06-06 09:28:00,66.4,65.0,29.77,SSW,212,0.0,2.0,96,0.06,,,0.79,weatherlink.com 1.10,2013-06-06 13:28:00,
2013-06-06 09:43:00,66.4,66.0,29.78,SSW,212,0.0,2.0,97,0.12,,,0.86,weatherlink.com 1.10,2013-06-06 13:43:00,
2013-06-06 09:58:00,66.3,65.0,29.78,SSW,212,0.0,3.0,96,0.19,,,0.93,weatherlink.com 1.10,2013-06-06 13:58:00,
2013-06-06 10:13:00,66.4,66.0,29.77,SSW,212,1.0,1.0,97,0.22,,,0.96,weatherlink.com 1.10,2013-06-06 14:13:00,
2013-06-06 10:28:00,66.7,66.0,29.76,SSW,212,0.0,1.0,97,0.17,,,0.96,weatherlink.com 1.10,2013-06-06 14:28:00,
2013-06-06 10:43:00,67.3,67.0,29.75,SSW,212,0.0,0.0,97,0.09,,,0.96,weatherlink.com 1.10,2013-06-06 14:43:00,
2013-06-06 10:59:00,67.6,66.0,29.76,SSW,212,0.0,2.0,94,0.03,,,0.96,weatherlink.com 1.10,2013-06-06 14:59:00,
2013-06-06 11:14:00,68.6,67.0,29.76,SSW,212,1.0,2.0,93,0.00,,,0.96,weatherlink.com 1.10,2013-06-06 15:14:00,
2013-06-06 11:29:00,70.1,67.0,29.76,SSW,212,1.0,3.0,91,0.00,,,0.96,weatherlink.com 1.10,2013-06-06 15:29:00,
2013-06-06 11:44:00,70.9,67.0,29.77,West,274,0.0,1.0,88,0.00,,,0.96,weatherlink.com 1.10,2013-06-06 15:44:00,
2013-06-06 11:59:00,71.2,67.0,29.77,North,360,0.0,3.0,87,0.00,,,0.96,weatherlink.com 1.10,2013-06-06 15:59:00,
2013-06-06 12:14:00,71.3,67.0,29.77,North,360,0.0,2.0,87,0.00,,,0.96,weatherlink.com 1.10,2013-06-06 16:14:00,
2013-06-06 12:29:00,71.3,68.0,29.77,North,360,0.0,1.0,88,0.00,,,0.96,weatherlink.com 1.10,2013-06-06 16:29:00,
2013-06-06 12:44:00,71.9,68.0,29.76,North,5,0.0,4.0,88,0.00,,,0.96,weatherlink.com 1.10,2013-06-06 16:44:00,
2013-06-06 12:59:00,72.1,68.0,29.76,WSW,240,2.0,4.0,86,0.00,,,0.96,weatherlink.com 1.10,2013-06-06 16:59:00,
2013-06-06 13:14:00,73.6,69.0,29.76,SW,226,1.0,4.0,84,0.00,,,0.96,weatherlink.com 1.10,2013-06-06 17:14:00,
2013-06-06 13:29:00,74.5,68.0,29.76,WSW,239,0.0,4.0,80,0.00,,,0.96,weatherlink.com 1.10,2013-06-06 17:29:00,
2013-06-06 13:44:00,75.1,69.0,29.76,South,190,2.0,4.0,80,0.01,,,0.97,weatherlink.com 1.10,2013-06-06 17:44:00,
2013-06-06 13:59:00,75.9,67.0,29.76,WNW,293,0.0,3.0,75,0.01,,,0.97,weatherlink.com 1.10,2013-06-06 17:59:00,
2013-06-06 14:14:00,77.8,69.0,29.75,NNE,18,0.0,5.0,73,0.01,,,0.97,weatherlink.com 1.10,2013-06-06 18:14:00,
2013-06-06 14:29:00,77.8,70.0,29.75,NE,34,0.0,5.0,78,0.01,,,0.97,weatherlink.com 1.10,2013-06-06 18:29:00,
2013-06-06 14:44:00,78.0,68.0,29.75,NNW,345,0.0,7.0,72,0.00,,,0.97,weatherlink.com 1.10,2013-06-06 18:44:00,
2013-06-06 14:59:00,80.0,69.0,29.75,NNE,22,9.0,9.0,70,0.00,,,0.97,weatherlink.com 1.10,2013-06-06 18:59:00,
2013-06-06 15:14:00,79.9,67.0,29.75,NE,36,0.0,3.0,64,0.00,,,0.97,weatherlink.com 1.10,2013-06-06 19:14:00,
2013-06-06 15:29:00,80.9,68.0,29.75,NNE,19,3.0,6.0,66,0.00,,,0.97,weatherlink.com 1.10,2013-06-06 19:29:00,
2013-06-06 15:44:00,81.7,65.0,29.75,NNW,346,0.0,7.0,58,0.00,,,0.97,weatherlink.com 1.10,2013-06-06 19:44:00,
2013-06-06 15:59:00,82.4,66.0,29.75,NNE,28,0.0,6.0,57,0.00,,,0.97,weatherlink.com 1.10,2013-06-06 19:59:00,
2013-06-06 16:14:00,80.9,67.0,29.75,North,9,1.0,4.0,62,0.00,,,0.97,weatherlink.com 1.10,2013-06-06 20:14:00,
2013-06-06 16:29:00,79.3,67.0,29.76,NE,37,1.0,8.0,65,0.00,,,0.97,weatherlink.com 1.10,2013-06-06 20:29:00,
2013-06-06 16:44:00,77.7,68.0,29.76,NE,36,1.0,5.0,71,0.00,,,0.97,weatherlink.com 1.10,2013-06-06 20:44:00,
2013-06-06 16:59:00,77.3,68.0,29.75,NNE,26,3.0,5.0,72,0.00,,,0.97,weatherlink.com 1.10,2013-06-06 20:59:00,
2013-06-06 17:14:00,77.4,67.0,29.75,NNE,27,2.0,3.0,70,0.00,,,0.97,weatherlink.com 1.10,2013-06-06 21:14:00,
2013-06-06 17:29:00,78.2,66.0,29.74,NNE,29,3.0,5.0,67,0.00,,,0.97,weatherlink.com 1.10,2013-06-06 21:29:00,
2013-06-06 17:44:00,80.5,66.0,29.74,NNE,30,1.0,4.0,62,0.00,,,0.97,weatherlink.com 1.10,2013-06-06 21:44:00,
2013-06-06 17:59:00,81.6,69.0,29.74,North,5,3.0,3.0,65,0.00,,,0.97,weatherlink.com 1.10,2013-06-06 21:59:00,
2013-06-06 18:14:00,82.5,67.0,29.75,NNE,28,1.0,3.0,60,0.00,,,0.97,weatherlink.com 1.10,2013-06-06 22:14:00,
2013-06-06 18:29:00,83.0,68.0,29.75,NNE,19,2.0,3.0,60,0.00,,,0.97,weatherlink.com 1.10,2013-06-06 22:29:00,
2013-06-06 18:44:00,81.9,65.0,29.74,NNE,17,2.0,2.0,57,0.00,,,0.97,weatherlink.com 1.10,2013-06-06 22:44:00,
2013-06-06 19:00:00,81.1,69.0,29.73,NNE,18,1.0,2.0,66,0.00,,,0.97,weatherlink.com 1.10,2013-06-06 23:00:00,
2013-06-06 19:15:00,80.5,67.0,29.73,NNE,18,0.0,3.0,64,0.00,,,0.97,weatherlink.com 1.10,2013-06-06 23:15:00,
2013-06-06 19:30:00,79.5,68.0,29.73,NNE,18,1.0,2.0,67,0.00,,,0.97,weatherlink.com 1.10,2013-06-06 23:30:00,
2013-06-06 19:45:00,78.4,69.0,29.73,NNE,18,0.0,1.0,73,0.00,,,0.97,weatherlink.com 1.10,2013-06-06 23:45:00,
2013-06-06 20:00:00,77.6,70.0,29.73,NNE,18,0.0,1.0,76,0.00,,,0.97,weatherlink.com 1.10,2013-06-07 00:00:00,
2013-06-06 20:15:00,76.2,69.0,29.73,NNE,18,0.0,2.0,79,0.00,,,0.97,weatherlink.com 1.10,2013-06-07 00:15:00,
2013-06-06 20:30:00,74.4,68.0,29.73,NNE,18,1.0,2.0,81,0.00,,,0.97,weatherlink.com 1.10,2013-06-07 00:30:00,
2013-06-06 20:45:00,72.7,68.0,29.73,NNE,18,1.0,2.0,84,0.00,,,0.97,weatherlink.com 1.10,2013-06-07 00:45:00,
2013-06-06 21:00:00,71.3,67.0,29.74,NNE,18,0.0,2.0,85,0.00,,,0.97,weatherlink.com 1.10,2013-06-07 01:00:00,
2013-06-06 21:15:00,70.1,66.0,29.74,NNE,18,0.0,2.0,87,0.00,,,0.97,weatherlink.com 1.10,2013-06-07 01:15:00,
2013-06-06 21:30:00,69.0,65.0,29.75,NNE,18,0.0,1.0,88,0.00,,,0.97,weatherlink.com 1.10,2013-06-07 01:30:00,
2013-06-06 21:45:00,68.1,65.0,29.75,NNE,18,0.0,0.0,89,0.00,,,0.97,weatherlink.com 1.10,2013-06-07 01:45:00,
2013-06-06 22:00:00,67.4,65.0,29.76,NNE,18,0.0,1.0,90,0.00,,,0.97,weatherlink.com 1.10,2013-06-07 02:00:00,
2013-06-06 22:15:00,66.6,64.0,29.76,NNE,18,1.0,2.0,91,0.00,,,0.97,weatherlink.com 1.10,2013-06-07 02:15:00,
2013-06-06 22:30:00,66.1,64.0,29.77,NNE,18,0.0,1.0,92,0.00,,,0.97,weatherlink.com 1.10,2013-06-07 02:30:00,
2013-06-06 22:45:00,65.7,63.0,29.77,NNE,18,0.0,1.0,92,0.00,,,0.97,weatherlink.com 1.10,2013-06-07 02:45:00,
2013-06-06 23:00:00,65.2,63.0,29.77,NNE,18,0.0,1.0,93,0.00,,,0.97,weatherlink.com 1.10,2013-06-07 03:00:00,
2013-06-06 23:15:00,64.9,63.0,29.77,NNE,18,0.0,1.0,93,0.00,,,0.97,weatherlink.com 1.10,2013-06-07 03:15:00,
2013-06-06 23:30:00,64.5,63.0,29.77,NNE,18,0.0,1.0,93,0.00,,,0.97,weatherlink.com 1.10,2013-06-07 03:30:00,
2013-06-06 23:45:00,64.1,62.0,29.77,NNE,18,0.0,1.0,94,0.00,,,0.97,weatherlink.com 1.10,2013-06-07 03:45:00,